Photometre #543[NE_1.6] Beijing-CAMS AOT

File : 20200923_543.hum

23/09/2020,00:08:20,TEMP=16.9,BA=5.56,STAT.A=16.0,ExtBa=12.45
23/09/2020,00:19:35,TEMP=17.0,BA=5.60,STAT.A=16.0,ExtBa=12.46
23/09/2020,00:30:22,TEMP=17.0,BA=5.64,STAT.D=16.0,ExtBa=12.46
23/09/2020,00:33:22,TEMP=17.2,BA=5.64,STAT.A=16.0,ExtBa=12.43
23/09/2020,00:45:22,TEMP=17.2,BA=5.64,STAT.D=16.0,ExtBa=12.46
23/09/2020,00:50:45,TEMP=17.2,BA=5.64,STAT.B=16.0,ExtBa=12.45
23/09/2020,01:03:22,TEMP=17.2,BA=5.64,STAT.D=16.0,ExtBa=12.46
23/09/2020,01:07:30,TEMP=17.2,BA=5.64,STAT.F,ExtBa=12.43
23/09/2020,01:18:22,TEMP=17.0,BA=5.64,STAT.D=16.0,ExtBa=12.46
23/09/2020,01:22:28,TEMP=17.1,BA=5.64,STAT.D=16.0,ExtBa=12.44
23/09/2020,01:33:22,TEMP=17.0,BA=5.64,STAT.D=16.0,ExtBa=12.46
23/09/2020,01:37:28,TEMP=17.2,BA=5.64,STAT.D=16.0,ExtBa=12.44
23/09/2020,01:48:22,TEMP=17.2,BA=5.64,STAT.D=16.0,ExtBa=12.45
23/09/2020,01:52:28,TEMP=17.4,BA=5.64,STAT.D=16.0,ExtBa=12.44
23/09/2020,02:03:22,TEMP=17.5,BA=5.64,STAT.D=16.0,ExtBa=12.43
23/09/2020,02:07:30,TEMP=17.6,BA=5.64,STAT.F,ExtBa=12.41
23/09/2020,02:18:22,TEMP=17.4,BA=5.64,STAT.D=16.0,ExtBa=12.42
23/09/2020,02:22:28,TEMP=17.5,BA=5.64,STAT.D=16.0,ExtBa=12.40
23/09/2020,02:33:23,TEMP=17.4,BA=5.64,STAT.D=16.0,ExtBa=12.42
23/09/2020,02:37:28,TEMP=17.5,BA=5.64,STAT.D=16.0,ExtBa=12.39
23/09/2020,02:48:23,TEMP=17.3,BA=5.64,STAT.D=16.0,ExtBa=12.42
23/09/2020,02:52:29,TEMP=17.4,BA=5.64,STAT.D=16.0,ExtBa=12.41
23/09/2020,03:03:23,TEMP=17.2,BA=5.64,STAT.D=16.0,ExtBa=12.42
23/09/2020,03:07:30,TEMP=17.4,BA=5.64,STAT.F,ExtBa=12.40
23/09/2020,03:18:23,TEMP=17.4,BA=5.64,STAT.D=16.0,ExtBa=12.43
23/09/2020,03:22:29,TEMP=17.7,BA=5.64,STAT.D=16.0,ExtBa=12.41
23/09/2020,03:33:23,TEMP=17.7,BA=5.64,STAT.D=16.0,ExtBa=12.43
23/09/2020,03:37:29,TEMP=17.9,BA=5.64,STAT.D=16.0,ExtBa=12.42
23/09/2020,03:48:23,TEMP=17.5,BA=5.64,STAT.D=16.0,ExtBa=12.43
23/09/2020,03:52:29,TEMP=17.4,BA=5.64,STAT.D=16.0,ExtBa=12.42
23/09/2020,04:03:23,TEMP=17.3,BA=5.64,STAT.D=16.0,ExtBa=12.43
23/09/2020,04:07:30,TEMP=17.5,BA=5.64,STAT.F,ExtBa=12.40
23/09/2020,04:18:23,TEMP=17.7,BA=5.64,STAT.D=16.0,ExtBa=12.42
23/09/2020,04:22:29,TEMP=18.1,BA=5.64,STAT.D=16.0,ExtBa=12.40
23/09/2020,04:33:23,TEMP=18.0,BA=5.64,STAT.D=16.0,ExtBa=12.43
23/09/2020,04:37:29,TEMP=18.1,BA=5.64,STAT.D=16.0,ExtBa=12.40
23/09/2020,04:48:23,TEMP=17.8,BA=5.64,STAT.D=16.0,ExtBa=12.42
23/09/2020,04:52:29,TEMP=18.0,BA=5.64,STAT.D=16.0,ExtBa=12.41
23/09/2020,05:03:23,TEMP=18.2,BA=5.64,STAT.D=16.0,ExtBa=12.42
23/09/2020,05:07:30,TEMP=18.5,BA=5.64,STAT.F,ExtBa=12.40
23/09/2020,05:18:23,TEMP=18.6,BA=5.64,STAT.D=16.0,ExtBa=12.42
23/09/2020,05:22:29,TEMP=18.6,BA=5.64,STAT.D=16.0,ExtBa=12.40
23/09/2020,05:33:23,TEMP=18.1,BA=5.64,STAT.D=16.0,ExtBa=12.42
23/09/2020,05:37:29,TEMP=18.1,BA=5.64,STAT.D=16.0,ExtBa=12.40
23/09/2020,05:48:22,TEMP=18.2,BA=5.64,STAT.D=16.0,ExtBa=12.42
23/09/2020,05:52:28,TEMP=18.4,BA=5.64,STAT.D=16.0,ExtBa=12.40
23/09/2020,06:03:22,TEMP=18.1,BA=5.64,STAT.D=16.0,ExtBa=12.42
23/09/2020,06:07:30,TEMP=18.3,BA=5.64,STAT.F,ExtBa=12.39
23/09/2020,06:18:22,TEMP=18.6,BA=5.64,STAT.D=16.0,ExtBa=12.42
23/09/2020,06:22:28,TEMP=18.9,BA=5.64,STAT.D=16.0,ExtBa=12.40
23/09/2020,06:33:22,TEMP=18.9,BA=5.64,STAT.D=16.0,ExtBa=12.42
23/09/2020,06:37:28,TEMP=18.9,BA=5.64,STAT.D=16.0,ExtBa=12.40
23/09/2020,06:48:22,TEMP=18.4,BA=5.64,STAT.D=16.0,ExtBa=12.42
23/09/2020,06:52:28,TEMP=18.4,BA=5.64,STAT.D=16.0,ExtBa=12.40
23/09/2020,07:03:22,TEMP=18.1,BA=5.64,STAT.D=16.0,ExtBa=12.42
23/09/2020,07:07:30,TEMP=18.2,BA=5.64,STAT.F,ExtBa=12.40
23/09/2020,07:18:22,TEMP=17.9,BA=5.64,STAT.D=16.0,ExtBa=12.42
23/09/2020,07:24:14,TEMP=18.1,BA=5.64,STAT.B=16.0,ExtBa=12.42
23/09/2020,07:36:22,TEMP=18.3,BA=5.64,STAT.D=16.0,ExtBa=12.43
23/09/2020,07:41:36,TEMP=18.6,BA=5.64,STAT.A=16.0,ExtBa=12.42
23/09/2020,07:54:22,TEMP=19.2,BA=5.64,STAT.D=16.0,ExtBa=12.43
23/09/2020,07:56:12,TEMP=19.6,BA=5.64,STAT.A=16.0,ExtBa=12.39
23/09/2020,08:06:38,TEMP=19.1,BA=5.64,STAT.A=16.0,ExtBa=12.43
23/09/2020,08:16:02,TEMP=19.1,BA=5.64,STAT.A=16.0,ExtBa=12.43
23/09/2020,08:24:01,TEMP=19.2,BA=5.64,STAT.C=16.0,ExtBa=12.43
23/09/2020,08:30:53,TEMP=19.4,BA=5.64,STAT.A=16.0,ExtBa=12.42
23/09/2020,08:36:52,TEMP=19.4,BA=5.64,STAT.A=16.0,ExtBa=12.42
23/09/2020,08:42:08,TEMP=19.3,BA=5.64,STAT.A=16.0,ExtBa=12.41
23/09/2020,08:46:48,TEMP=19.3,BA=5.64,STAT.A=16.0,ExtBa=12.40
23/09/2020,08:50:59,TEMP=19.3,BA=5.64,STAT.B=16.0,ExtBa=12.39
23/09/2020,08:59:43,TEMP=19.1,BA=5.64,STAT.A=16.0,ExtBa=12.41
23/09/2020,09:06:38,TEMP=19.1,BA=5.60,STAT.A=16.0,ExtBa=12.41
23/09/2020,09:12:15,TEMP=19.1,BA=5.64,STAT.A=16.0,ExtBa=12.40
23/09/2020,09:16:54,TEMP=19.1,BA=5.64,STAT.A=16.0,ExtBa=12.40
23/09/2020,09:20:49,TEMP=19.1,BA=5.64,STAT.A=16.0,ExtBa=12.38
23/09/2020,09:24:10,TEMP=19.1,BA=5.64,STAT.A=16.0,ExtBa=12.38
23/09/2020,22:51:46,TEMP=16.5,BA=5.64,STAT.A=16.0,ExtBa=12.52
23/09/2020,22:55:07,TEMP=16.7,BA=5.64,STAT.A=16.0,ExtBa=12.48
23/09/2020,22:59:03,TEMP=16.7,BA=5.64,STAT.A=16.0,ExtBa=12.47
23/09/2020,23:03:42,TEMP=16.7,BA=5.60,STAT.A=16.0,ExtBa=12.46
23/09/2020,23:09:20,TEMP=16.7,BA=5.60,STAT.A=16.0,ExtBa=12.47
23/09/2020,23:16:15,TEMP=16.7,BA=5.60,STAT.A=16.0,ExtBa=12.47
23/09/2020,23:25:00,TEMP=16.7,BA=5.64,STAT.B=16.0,ExtBa=12.48
23/09/2020,23:33:52,TEMP=16.9,BA=5.56,STAT.A=16.0,ExtBa=12.45
23/09/2020,23:39:09,TEMP=17.0,BA=5.56,STAT.A=16.0,ExtBa=12.45
23/09/2020,23:45:09,TEMP=17.1,BA=5.56,STAT.A=16.0,ExtBa=12.45
23/09/2020,23:52:03,TEMP=17.2,BA=5.64,STAT.C=16.0,ExtBa=12.45